sensor_id;sensor_type;location;lat;lon;timestamp;P1;durP1;ratioP1;P2;durP2;ratioP2
8568;SDS011;4322;51.104;-4.162;2022-08-07T00:01:14;1.10;;;1.10;;
8568;SDS011;4322;51.104;-4.162;2022-08-07T00:04:03;1.07;;;1.07;;
8568;SDS011;4322;51.104;-4.162;2022-08-07T00:06:36;1.20;;;1.20;;
8568;SDS011;4322;51.104;-4.162;2022-08-07T00:09:17;1.40;;;1.40;;
8568;SDS011;4322;51.104;-4.162;2022-08-07T00:11:48;1.50;;;1.50;;
8568;SDS011;4322;51.104;-4.162;2022-08-07T00:14:25;1.60;;;1.60;;
8568;SDS011;4322;51.104;-4.162;2022-08-07T00:16:57;1.10;;;1.10;;
8568;SDS011;4322;51.104;-4.162;2022-08-07T00:19:28;1.50;;;1.50;;
8568;SDS011;4322;51.104;-4.162;2022-08-07T00:22:17;1.60;;;1.60;;
8568;SDS011;4322;51.104;-4.162;2022-08-07T00:25:01;1.30;;;1.30;;
8568;SDS011;4322;51.104;-4.162;2022-08-07T00:27:32;1.20;;;1.20;;
8568;SDS011;4322;51.104;-4.162;2022-08-07T00:30:22;1.13;;;1.13;;
8568;SDS011;4322;51.104;-4.162;2022-08-07T00:32:53;1.50;;;1.50;;
8568;SDS011;4322;51.104;-4.162;2022-08-07T00:35:22;1.50;;;1.50;;
8568;SDS011;4322;51.104;-4.162;2022-08-07T00:37:50;1.50;;;1.50;;
8568;SDS011;4322;51.104;-4.162;2022-08-07T00:40:19;1.13;;;1.13;;
8568;SDS011;4322;51.104;-4.162;2022-08-07T00:43:06;1.60;;;1.60;;
8568;SDS011;4322;51.104;-4.162;2022-08-07T00:45:56;1.67;;;1.67;;
8568;SDS011;4322;51.104;-4.162;2022-08-07T00:48:24;1.10;;;1.10;;
8568;SDS011;4322;51.104;-4.162;2022-08-07T00:50:57;1.20;;;1.20;;
8568;SDS011;4322;51.104;-4.162;2022-08-07T00:53:26;1.10;;;1.10;;
8568;SDS011;4322;51.104;-4.162;2022-08-07T00:56:09;1.20;;;1.20;;
8568;SDS011;4322;51.104;-4.162;2022-08-07T00:58:41;1.60;;;1.60;;
8568;SDS011;4322;51.104;-4.162;2022-08-07T01:01:17;1.33;;;1.33;;
8568;SDS011;4322;51.104;-4.162;2022-08-07T01:03:46;1.00;;;1.00;;
8568;SDS011;4322;51.104;-4.162;2022-08-07T01:06:25;1.60;;;1.60;;
8568;SDS011;4322;51.104;-4.162;2022-08-07T01:08:54;1.60;;;1.60;;
8568;SDS011;4322;51.104;-4.162;2022-08-07T01:11:26;1.50;;;1.50;;
8568;SDS011;4322;51.104;-4.162;2022-08-07T01:14:15;1.07;;;1.07;;
8568;SDS011;4322;51.104;-4.162;2022-08-07T01:16:55;1.07;;;1.07;;
8568;SDS011;4322;51.104;-4.162;2022-08-07T01:19:23;1.10;;;1.10;;
8568;SDS011;4322;51.104;-4.162;2022-08-07T01:22:00;1.50;;;1.50;;
8568;SDS011;4322;51.104;-4.162;2022-08-07T01:24:34;1.20;;;1.20;;
8568;SDS011;4322;51.104;-4.162;2022-08-07T01:27:03;1.03;;;1.03;;
8568;SDS011;4322;51.104;-4.162;2022-08-07T01:29:45;1.20;;;1.20;;
8568;SDS011;4322;51.104;-4.162;2022-08-07T01:32:15;1.70;;;1.70;;
8568;SDS011;4322;51.104;-4.162;2022-08-07T01:34:47;1.60;;;1.60;;
8568;SDS011;4322;51.104;-4.162;2022-08-07T01:37:18;1.57;;;1.57;;
8568;SDS011;4322;51.104;-4.162;2022-08-07T01:39:48;1.20;;;1.20;;
8568;SDS011;4322;51.104;-4.162;2022-08-07T01:42:16;1.77;;;1.77;;
8568;SDS011;4322;51.104;-4.162;2022-08-07T01:45:05;1.70;;;1.70;;
8568;SDS011;4322;51.104;-4.162;2022-08-07T01:47:43;1.57;;;1.57;;
8568;SDS011;4322;51.104;-4.162;2022-08-07T01:50:32;1.17;;;1.17;;
8568;SDS011;4322;51.104;-4.162;2022-08-07T01:53:09;1.10;;;1.10;;
8568;SDS011;4322;51.104;-4.162;2022-08-07T01:55:48;1.50;;;1.50;;
8568;SDS011;4322;51.104;-4.162;2022-08-07T01:58:19;1.60;;;1.60;;
8568;SDS011;4322;51.104;-4.162;2022-08-07T02:00:57;1.50;;;1.50;;
8568;SDS011;4322;51.104;-4.162;2022-08-07T02:03:51;1.10;;;1.10;;
8568;SDS011;4322;51.104;-4.162;2022-08-07T02:06:23;1.70;;;1.70;;
8568;SDS011;4322;51.104;-4.162;2022-08-07T02:08:59;1.80;;;1.80;;
8568;SDS011;4322;51.104;-4.162;2022-08-07T02:11:31;1.40;;;1.40;;
8568;SDS011;4322;51.104;-4.162;2022-08-07T02:14:21;1.30;;;1.30;;
8568;SDS011;4322;51.104;-4.162;2022-08-07T02:17:06;1.20;;;1.20;;
8568;SDS011;4322;51.104;-4.162;2022-08-07T02:19:36;1.70;;;1.70;;
8568;SDS011;4322;51.104;-4.162;2022-08-07T02:22:26;1.60;;;1.60;;
8568;SDS011;4322;51.104;-4.162;2022-08-07T02:24:58;1.70;;;1.70;;
8568;SDS011;4322;51.104;-4.162;2022-08-07T02:27:42;1.80;;;1.80;;
8568;SDS011;4322;51.104;-4.162;2022-08-07T02:30:18;1.70;;;1.70;;
8568;SDS011;4322;51.104;-4.162;2022-08-07T02:32:47;1.80;;;1.80;;
8568;SDS011;4322;51.104;-4.162;2022-08-07T02:35:35;1.60;;;1.60;;
8568;SDS011;4322;51.104;-4.162;2022-08-07T02:38:24;1.80;;;1.80;;
8568;SDS011;4322;51.104;-4.162;2022-08-07T02:40:58;1.70;;;1.70;;
8568;SDS011;4322;51.104;-4.162;2022-08-07T02:43:29;1.83;;;1.83;;
8568;SDS011;4322;51.104;-4.162;2022-08-07T02:45:58;1.70;;;1.70;;
8568;SDS011;4322;51.104;-4.162;2022-08-07T02:48:29;1.73;;;1.73;;
8568;SDS011;4322;51.104;-4.162;2022-08-07T02:51:01;1.73;;;1.73;;
8568;SDS011;4322;51.104;-4.162;2022-08-07T02:53:56;1.70;;;1.70;;
8568;SDS011;4322;51.104;-4.162;2022-08-07T02:56:28;1.73;;;1.73;;
8568;SDS011;4322;51.104;-4.162;2022-08-07T02:58:59;1.90;;;1.90;;
8568;SDS011;4322;51.104;-4.162;2022-08-07T03:01:31;1.70;;;1.70;;
8568;SDS011;4322;51.104;-4.162;2022-08-07T03:04:05;1.63;;;1.63;;
8568;SDS011;4322;51.104;-4.162;2022-08-07T03:06:39;1.60;;;1.60;;
8568;SDS011;4322;51.104;-4.162;2022-08-07T03:09:11;1.70;;;1.70;;
8568;SDS011;4322;51.104;-4.162;2022-08-07T03:12:02;1.70;;;1.70;;
8568;SDS011;4322;51.104;-4.162;2022-08-07T03:14:33;1.50;;;1.50;;
8568;SDS011;4322;51.104;-4.162;2022-08-07T03:17:04;1.60;;;1.60;;
8568;SDS011;4322;51.104;-4.162;2022-08-07T03:19:34;1.70;;;1.70;;
8568;SDS011;4322;51.104;-4.162;2022-08-07T03:22:03;1.70;;;1.70;;
8568;SDS011;4322;51.104;-4.162;2022-08-07T03:24:44;1.70;;;1.70;;
8568;SDS011;4322;51.104;-4.162;2022-08-07T03:27:14;1.60;;;1.60;;
8568;SDS011;4322;51.104;-4.162;2022-08-07T03:30:03;1.60;;;1.60;;
8568;SDS011;4322;51.104;-4.162;2022-08-07T03:32:37;1.63;;;1.63;;
8568;SDS011;4322;51.104;-4.162;2022-08-07T03:35:24;1.50;;;1.50;;
8568;SDS011;4322;51.104;-4.162;2022-08-07T03:38:14;1.60;;;1.60;;
8568;SDS011;4322;51.104;-4.162;2022-08-07T03:40:54;1.60;;;1.60;;
8568;SDS011;4322;51.104;-4.162;2022-08-07T03:43:24;1.60;;;1.60;;
8568;SDS011;4322;51.104;-4.162;2022-08-07T03:45:58;1.60;;;1.60;;
8568;SDS011;4322;51.104;-4.162;2022-08-07T03:48:35;1.47;;;1.47;;
8568;SDS011;4322;51.104;-4.162;2022-08-07T03:51:24;1.70;;;1.70;;
8568;SDS011;4322;51.104;-4.162;2022-08-07T03:54:12;1.47;;;1.47;;
8568;SDS011;4322;51.104;-4.162;2022-08-07T03:57:00;1.53;;;1.53;;
8568;SDS011;4322;51.104;-4.162;2022-08-07T03:59:34;1.50;;;1.50;;
8568;SDS011;4322;51.104;-4.162;2022-08-07T04:02:23;1.50;;;1.50;;
8568;SDS011;4322;51.104;-4.162;2022-08-07T04:04:52;1.50;;;1.50;;
8568;SDS011;4322;51.104;-4.162;2022-08-07T04:07:22;1.40;;;1.40;;
8568;SDS011;4322;51.104;-4.162;2022-08-07T04:10:01;1.50;;;1.50;;
8568;SDS011;4322;51.104;-4.162;2022-08-07T04:12:30;1.40;;;1.40;;
8568;SDS011;4322;51.104;-4.162;2022-08-07T04:15:02;1.50;;;1.50;;
8568;SDS011;4322;51.104;-4.162;2022-08-07T04:17:30;1.40;;;1.40;;
8568;SDS011;4322;51.104;-4.162;2022-08-07T04:20:19;1.40;;;1.40;;
8568;SDS011;4322;51.104;-4.162;2022-08-07T04:22:50;1.50;;;1.50;;
8568;SDS011;4322;51.104;-4.162;2022-08-07T04:25:31;1.50;;;1.50;;
8568;SDS011;4322;51.104;-4.162;2022-08-07T04:28:04;1.40;;;1.40;;
8568;SDS011;4322;51.104;-4.162;2022-08-07T04:30:35;1.50;;;1.50;;
8568;SDS011;4322;51.104;-4.162;2022-08-07T04:33:20;1.40;;;1.40;;
8568;SDS011;4322;51.104;-4.162;2022-08-07T04:35:50;1.47;;;1.47;;
8568;SDS011;4322;51.104;-4.162;2022-08-07T04:38:19;1.50;;;1.50;;
8568;SDS011;4322;51.104;-4.162;2022-08-07T04:40:48;1.40;;;1.40;;
8568;SDS011;4322;51.104;-4.162;2022-08-07T04:43:24;1.43;;;1.43;;
8568;SDS011;4322;51.104;-4.162;2022-08-07T04:46:17;1.20;;;1.20;;
8568;SDS011;4322;51.104;-4.162;2022-08-07T04:49:02;1.40;;;1.40;;
8568;SDS011;4322;51.104;-4.162;2022-08-07T04:51:46;1.30;;;1.30;;
8568;SDS011;4322;51.104;-4.162;2022-08-07T04:54:24;1.10;;;1.10;;
8568;SDS011;4322;51.104;-4.162;2022-08-07T04:57:01;1.00;;;1.00;;
8568;SDS011;4322;51.104;-4.162;2022-08-07T05:00:00;1.00;;;1.00;;
8568;SDS011;4322;51.104;-4.162;2022-08-07T05:02:42;1.10;;;1.10;;
8568;SDS011;4322;51.104;-4.162;2022-08-07T05:05:24;1.13;;;1.13;;
8568;SDS011;4322;51.104;-4.162;2022-08-07T05:08:17;1.13;;;1.13;;
8568;SDS011;4322;51.104;-4.162;2022-08-07T05:11:09;1.20;;;1.20;;
8568;SDS011;4322;51.104;-4.162;2022-08-07T05:13:51;1.30;;;1.30;;
8568;SDS011;4322;51.104;-4.162;2022-08-07T05:16:41;1.20;;;1.20;;
8568;SDS011;4322;51.104;-4.162;2022-08-07T05:19:19;1.20;;;1.20;;
8568;SDS011;4322;51.104;-4.162;2022-08-07T05:22:10;1.10;;;1.10;;
8568;SDS011;4322;51.104;-4.162;2022-08-07T05:24:52;1.10;;;1.10;;
8568;SDS011;4322;51.104;-4.162;2022-08-07T05:27:25;1.10;;;1.10;;
8568;SDS011;4322;51.104;-4.162;2022-08-07T05:30:15;1.30;;;1.30;;
8568;SDS011;4322;51.104;-4.162;2022-08-07T05:32:55;1.07;;;1.07;;
8568;SDS011;4322;51.104;-4.162;2022-08-07T05:35:29;1.00;;;1.00;;
8568;SDS011;4322;51.104;-4.162;2022-08-07T05:38:07;1.10;;;1.10;;
8568;SDS011;4322;51.104;-4.162;2022-08-07T05:40:37;1.10;;;1.10;;
8568;SDS011;4322;51.104;-4.162;2022-08-07T05:43:17;1.07;;;1.07;;
8568;SDS011;4322;51.104;-4.162;2022-08-07T05:46:05;1.20;;;1.20;;
8568;SDS011;4322;51.104;-4.162;2022-08-07T05:48:34;1.10;;;1.10;;
8568;SDS011;4322;51.104;-4.162;2022-08-07T05:51:24;1.20;;;1.20;;
8568;SDS011;4322;51.104;-4.162;2022-08-07T05:53:58;1.20;;;1.20;;
8568;SDS011;4322;51.104;-4.162;2022-08-07T05:56:47;0.90;;;0.90;;
8568;SDS011;4322;51.104;-4.162;2022-08-07T05:59:17;1.00;;;1.00;;
8568;SDS011;4322;51.104;-4.162;2022-08-07T06:01:48;1.20;;;1.20;;
8568;SDS011;4322;51.104;-4.162;2022-08-07T06:04:18;1.07;;;1.07;;
8568;SDS011;4322;51.104;-4.162;2022-08-07T06:06:56;1.00;;;1.00;;
8568;SDS011;4322;51.104;-4.162;2022-08-07T06:09:30;1.00;;;1.00;;
8568;SDS011;4322;51.104;-4.162;2022-08-07T06:12:18;1.00;;;1.00;;
8568;SDS011;4322;51.104;-4.162;2022-08-07T06:14:58;1.10;;;1.10;;
8568;SDS011;4322;51.104;-4.162;2022-08-07T06:17:30;1.00;;;1.00;;
8568;SDS011;4322;51.104;-4.162;2022-08-07T06:20:04;0.90;;;0.90;;
8568;SDS011;4322;51.104;-4.162;2022-08-07T06:22:52;1.00;;;1.00;;
8568;SDS011;4322;51.104;-4.162;2022-08-07T06:25:41;1.07;;;1.07;;
8568;SDS011;4322;51.104;-4.162;2022-08-07T06:28:22;1.00;;;1.00;;
8568;SDS011;4322;51.104;-4.162;2022-08-07T06:30:53;0.90;;;0.90;;
8568;SDS011;4322;51.104;-4.162;2022-08-07T06:33:24;1.00;;;1.00;;
8568;SDS011;4322;51.104;-4.162;2022-08-07T06:35:52;0.93;;;0.93;;
8568;SDS011;4322;51.104;-4.162;2022-08-07T06:38:41;1.10;;;1.10;;
8568;SDS011;4322;51.104;-4.162;2022-08-07T06:41:30;0.80;;;0.80;;
8568;SDS011;4322;51.104;-4.162;2022-08-07T06:44:22;0.80;;;0.80;;
8568;SDS011;4322;51.104;-4.162;2022-08-07T06:47:01;0.90;;;0.90;;
8568;SDS011;4322;51.104;-4.162;2022-08-07T06:49:40;1.00;;;1.00;;
8568;SDS011;4322;51.104;-4.162;2022-08-07T06:52:23;0.90;;;0.90;;
8568;SDS011;4322;51.104;-4.162;2022-08-07T06:55:02;0.73;;;0.73;;
8568;SDS011;4322;51.104;-4.162;2022-08-07T06:57:52;0.90;;;0.90;;
8568;SDS011;4322;51.104;-4.162;2022-08-07T07:00:25;0.90;;;0.90;;
8568;SDS011;4322;51.104;-4.162;2022-08-07T07:02:55;0.90;;;0.90;;
8568;SDS011;4322;51.104;-4.162;2022-08-07T07:05:33;0.93;;;0.93;;
8568;SDS011;4322;51.104;-4.162;2022-08-07T07:08:23;1.00;;;1.00;;
8568;SDS011;4322;51.104;-4.162;2022-08-07T07:10:54;0.90;;;0.90;;
8568;SDS011;4322;51.104;-4.162;2022-08-07T07:13:28;0.80;;;0.80;;
8568;SDS011;4322;51.104;-4.162;2022-08-07T07:16:21;1.00;;;1.00;;
8568;SDS011;4322;51.104;-4.162;2022-08-07T07:18:56;0.93;;;0.93;;
8568;SDS011;4322;51.104;-4.162;2022-08-07T07:21:48;0.77;;;0.77;;
8568;SDS011;4322;51.104;-4.162;2022-08-07T07:24:37;0.90;;;0.90;;
8568;SDS011;4322;51.104;-4.162;2022-08-07T07:27:10;0.93;;;0.93;;
8568;SDS011;4322;51.104;-4.162;2022-08-07T07:29:42;0.97;;;0.97;;
8568;SDS011;4322;51.104;-4.162;2022-08-07T07:32:35;0.90;;;0.90;;
8568;SDS011;4322;51.104;-4.162;2022-08-07T07:35:08;0.80;;;0.80;;
8568;SDS011;4322;51.104;-4.162;2022-08-07T07:37:38;0.67;;;0.67;;
8568;SDS011;4322;51.104;-4.162;2022-08-07T07:40:16;0.80;;;0.80;;
8568;SDS011;4322;51.104;-4.162;2022-08-07T07:42:53;1.00;;;1.00;;
8568;SDS011;4322;51.104;-4.162;2022-08-07T07:45:40;0.80;;;0.80;;
8568;SDS011;4322;51.104;-4.162;2022-08-07T07:48:31;0.80;;;0.80;;
8568;SDS011;4322;51.104;-4.162;2022-08-07T07:51:03;0.80;;;0.80;;
8568;SDS011;4322;51.104;-4.162;2022-08-07T07:53:34;0.97;;;0.97;;
8568;SDS011;4322;51.104;-4.162;2022-08-07T07:56:17;0.80;;;0.80;;
8568;SDS011;4322;51.104;-4.162;2022-08-07T07:58:58;0.83;;;0.83;;
8568;SDS011;4322;51.104;-4.162;2022-08-07T08:01:27;0.90;;;0.90;;
8568;SDS011;4322;51.104;-4.162;2022-08-07T08:04:17;0.80;;;0.80;;
8568;SDS011;4322;51.104;-4.162;2022-08-07T08:06:51;0.90;;;0.90;;
8568;SDS011;4322;51.104;-4.162;2022-08-07T08:09:22;0.70;;;0.70;;
8568;SDS011;4322;51.104;-4.162;2022-08-07T08:11:54;1.10;;;1.10;;
8568;SDS011;4322;51.104;-4.162;2022-08-07T08:14:30;0.70;;;0.70;;
8568;SDS011;4322;51.104;-4.162;2022-08-07T08:17:02;0.80;;;0.80;;
8568;SDS011;4322;51.104;-4.162;2022-08-07T08:19:52;0.80;;;0.80;;
8568;SDS011;4322;51.104;-4.162;2022-08-07T08:22:43;0.90;;;0.90;;
8568;SDS011;4322;51.104;-4.162;2022-08-07T08:25:34;0.90;;;0.90;;
8568;SDS011;4322;51.104;-4.162;2022-08-07T08:28:22;0.80;;;0.80;;
8568;SDS011;4322;51.104;-4.162;2022-08-07T08:31:06;0.80;;;0.80;;
8568;SDS011;4322;51.104;-4.162;2022-08-07T08:33:41;0.70;;;0.70;;
8568;SDS011;4322;51.104;-4.162;2022-08-07T08:36:15;0.90;;;0.90;;
8568;SDS011;4322;51.104;-4.162;2022-08-07T08:38:51;0.80;;;0.80;;
8568;SDS011;4322;51.104;-4.162;2022-08-07T08:41:21;0.80;;;0.80;;
8568;SDS011;4322;51.104;-4.162;2022-08-07T08:44:14;0.90;;;0.90;;
8568;SDS011;4322;51.104;-4.162;2022-08-07T08:47:01;1.00;;;1.00;;
8568;SDS011;4322;51.104;-4.162;2022-08-07T08:49:39;0.90;;;0.90;;
8568;SDS011;4322;51.104;-4.162;2022-08-07T08:52:31;0.90;;;0.90;;
8568;SDS011;4322;51.104;-4.162;2022-08-07T08:55:20;1.00;;;1.00;;
8568;SDS011;4322;51.104;-4.162;2022-08-07T08:58:14;0.90;;;0.90;;
8568;SDS011;4322;51.104;-4.162;2022-08-07T09:00:56;0.80;;;0.80;;
8568;SDS011;4322;51.104;-4.162;2022-08-07T09:03:44;1.10;;;1.10;;
8568;SDS011;4322;51.104;-4.162;2022-08-07T09:06:25;1.00;;;1.00;;
8568;SDS011;4322;51.104;-4.162;2022-08-07T09:09:06;1.00;;;1.00;;
8568;SDS011;4322;51.104;-4.162;2022-08-07T09:11:57;1.10;;;1.10;;
8568;SDS011;4322;51.104;-4.162;2022-08-07T09:15:02;1.20;;;1.20;;
8568;SDS011;4322;51.104;-4.162;2022-08-07T09:18:13;1.20;;;1.20;;
8568;SDS011;4322;51.104;-4.162;2022-08-07T09:21:04;1.20;;;1.20;;
8568;SDS011;4322;51.104;-4.162;2022-08-07T09:24:09;1.10;;;1.10;;
8568;SDS011;4322;51.104;-4.162;2022-08-07T09:27:15;1.20;;;1.20;;
8568;SDS011;4322;51.104;-4.162;2022-08-07T09:29:56;1.20;;;1.20;;
8568;SDS011;4322;51.104;-4.162;2022-08-07T09:32:45;1.20;;;1.20;;
8568;SDS011;4322;51.104;-4.162;2022-08-07T09:35:34;1.20;;;1.20;;
8568;SDS011;4322;51.104;-4.162;2022-08-07T09:38:32;1.30;;;1.30;;
8568;SDS011;4322;51.104;-4.162;2022-08-07T09:41:16;1.20;;;1.20;;
8568;SDS011;4322;51.104;-4.162;2022-08-07T09:44:12;1.20;;;1.20;;
8568;SDS011;4322;51.104;-4.162;2022-08-07T09:47:08;1.30;;;1.30;;
8568;SDS011;4322;51.104;-4.162;2022-08-07T09:50:10;1.47;;;1.47;;
8568;SDS011;4322;51.104;-4.162;2022-08-07T09:52:53;1.40;;;1.40;;
8568;SDS011;4322;51.104;-4.162;2022-08-07T09:55:28;1.40;;;1.40;;
8568;SDS011;4322;51.104;-4.162;2022-08-07T10:01:42;1.30;;;1.30;;
8568;SDS011;4322;51.104;-4.162;2022-08-07T10:04:27;1.40;;;1.40;;
8568;SDS011;4322;51.104;-4.162;2022-08-07T10:07:15;1.40;;;1.40;;
8568;SDS011;4322;51.104;-4.162;2022-08-07T10:10:18;1.30;;;1.30;;
8568;SDS011;4322;51.104;-4.162;2022-08-07T10:13:04;1.20;;;1.20;;
8568;SDS011;4322;51.104;-4.162;2022-08-07T10:16:12;1.20;;;1.20;;
8568;SDS011;4322;51.104;-4.162;2022-08-07T10:19:04;1.30;;;1.30;;
8568;SDS011;4322;51.104;-4.162;2022-08-07T10:21:48;1.40;;;1.40;;
8568;SDS011;4322;51.104;-4.162;2022-08-07T10:24:46;1.40;;;1.40;;
8568;SDS011;4322;51.104;-4.162;2022-08-07T10:27:28;1.40;;;1.40;;
8568;SDS011;4322;51.104;-4.162;2022-08-07T10:30:15;1.40;;;1.40;;
8568;SDS011;4322;51.104;-4.162;2022-08-07T10:32:53;1.40;;;1.40;;
8568;SDS011;4322;51.104;-4.162;2022-08-07T10:35:45;1.27;;;1.27;;
8568;SDS011;4322;51.104;-4.162;2022-08-07T10:38:38;1.40;;;1.40;;
8568;SDS011;4322;51.104;-4.162;2022-08-07T10:41:22;1.40;;;1.40;;
8568;SDS011;4322;51.104;-4.162;2022-08-07T10:44:18;1.40;;;1.40;;
8568;SDS011;4322;51.104;-4.162;2022-08-07T10:47:08;1.30;;;1.30;;
8568;SDS011;4322;51.104;-4.162;2022-08-07T10:50:09;1.50;;;1.50;;
8568;SDS011;4322;51.104;-4.162;2022-08-07T10:52:51;1.20;;;1.20;;
8568;SDS011;4322;51.104;-4.162;2022-08-07T10:55:34;1.33;;;1.33;;
8568;SDS011;4322;51.104;-4.162;2022-08-07T10:58:14;1.40;;;1.40;;
8568;SDS011;4322;51.104;-4.162;2022-08-07T11:01:18;1.50;;;1.50;;
8568;SDS011;4322;51.104;-4.162;2022-08-07T11:04:23;1.40;;;1.40;;
8568;SDS011;4322;51.104;-4.162;2022-08-07T11:07:18;1.40;;;1.40;;
8568;SDS011;4322;51.104;-4.162;2022-08-07T11:10:15;1.50;;;1.50;;
8568;SDS011;4322;51.104;-4.162;2022-08-07T11:12:55;1.60;;;1.60;;
8568;SDS011;4322;51.104;-4.162;2022-08-07T11:15:28;1.57;;;1.57;;
8568;SDS011;4322;51.104;-4.162;2022-08-07T11:18:02;1.50;;;1.50;;
8568;SDS011;4322;51.104;-4.162;2022-08-07T11:20:40;1.40;;;1.40;;
8568;SDS011;4322;51.104;-4.162;2022-08-07T11:23:17;1.40;;;1.40;;
8568;SDS011;4322;51.104;-4.162;2022-08-07T11:25:57;1.47;;;1.47;;
8568;SDS011;4322;51.104;-4.162;2022-08-07T11:28:33;1.47;;;1.47;;
8568;SDS011;4322;51.104;-4.162;2022-08-07T11:31:09;1.43;;;1.43;;
8568;SDS011;4322;51.104;-4.162;2022-08-07T11:33:50;1.33;;;1.33;;
8568;SDS011;4322;51.104;-4.162;2022-08-07T11:36:32;1.40;;;1.40;;
8568;SDS011;4322;51.104;-4.162;2022-08-07T11:39:20;1.40;;;1.40;;
8568;SDS011;4322;51.104;-4.162;2022-08-07T11:42:18;1.40;;;1.40;;
8568;SDS011;4322;51.104;-4.162;2022-08-07T11:44:57;1.53;;;1.53;;
8568;SDS011;4322;51.104;-4.162;2022-08-07T11:47:35;1.47;;;1.47;;
8568;SDS011;4322;51.104;-4.162;2022-08-07T11:50:30;1.37;;;1.37;;
8568;SDS011;4322;51.104;-4.162;2022-08-07T11:53:30;1.40;;;1.40;;
8568;SDS011;4322;51.104;-4.162;2022-08-07T11:56:33;1.50;;;1.50;;
8568;SDS011;4322;51.104;-4.162;2022-08-07T11:59:14;1.40;;;1.40;;
8568;SDS011;4322;51.104;-4.162;2022-08-07T12:02:16;1.20;;;1.20;;
8568;SDS011;4322;51.104;-4.162;2022-08-07T12:05:01;1.50;;;1.50;;
8568;SDS011;4322;51.104;-4.162;2022-08-07T12:07:56;1.50;;;1.50;;
8568;SDS011;4322;51.104;-4.162;2022-08-07T12:10:47;1.47;;;1.47;;
8568;SDS011;4322;51.104;-4.162;2022-08-07T12:13:39;1.40;;;1.40;;
8568;SDS011;4322;51.104;-4.162;2022-08-07T12:16:14;1.40;;;1.40;;
8568;SDS011;4322;51.104;-4.162;2022-08-07T12:18:56;1.60;;;1.60;;
8568;SDS011;4322;51.104;-4.162;2022-08-07T12:21:34;1.33;;;1.33;;
8568;SDS011;4322;51.104;-4.162;2022-08-07T12:24:34;1.60;;;1.60;;
8568;SDS011;4322;51.104;-4.162;2022-08-07T12:27:36;1.50;;;1.50;;
8568;SDS011;4322;51.104;-4.162;2022-08-07T12:30:30;1.40;;;1.40;;
8568;SDS011;4322;51.104;-4.162;2022-08-07T12:33:01;1.70;;;1.70;;
8568;SDS011;4322;51.104;-4.162;2022-08-07T12:35:44;1.40;;;1.40;;
8568;SDS011;4322;51.104;-4.162;2022-08-07T12:38:23;1.60;;;1.60;;
8568;SDS011;4322;51.104;-4.162;2022-08-07T12:41:03;1.60;;;1.60;;
8568;SDS011;4322;51.104;-4.162;2022-08-07T12:43:36;1.60;;;1.60;;
8568;SDS011;4322;51.104;-4.162;2022-08-07T12:46:31;1.40;;;1.40;;
8568;SDS011;4322;51.104;-4.162;2022-08-07T12:49:12;1.50;;;1.50;;
8568;SDS011;4322;51.104;-4.162;2022-08-07T12:52:05;1.70;;;1.70;;
8568;SDS011;4322;51.104;-4.162;2022-08-07T12:54:42;1.50;;;1.50;;
8568;SDS011;4322;51.104;-4.162;2022-08-07T12:57:23;1.60;;;1.60;;
8568;SDS011;4322;51.104;-4.162;2022-08-07T13:00:17;1.40;;;1.40;;
8568;SDS011;4322;51.104;-4.162;2022-08-07T13:03:00;1.63;;;1.63;;
8568;SDS011;4322;51.104;-4.162;2022-08-07T13:06:08;1.47;;;1.47;;
8568;SDS011;4322;51.104;-4.162;2022-08-07T13:08:55;1.60;;;1.60;;
8568;SDS011;4322;51.104;-4.162;2022-08-07T13:11:50;1.70;;;1.70;;
8568;SDS011;4322;51.104;-4.162;2022-08-07T13:14:35;1.70;;;1.70;;
8568;SDS011;4322;51.104;-4.162;2022-08-07T13:17:21;1.70;;;1.70;;
8568;SDS011;4322;51.104;-4.162;2022-08-07T13:20:07;1.50;;;1.50;;
8568;SDS011;4322;51.104;-4.162;2022-08-07T13:22:44;1.50;;;1.50;;
8568;SDS011;4322;51.104;-4.162;2022-08-07T13:25:22;1.50;;;1.50;;
8568;SDS011;4322;51.104;-4.162;2022-08-07T13:27:57;1.57;;;1.57;;
8568;SDS011;4322;51.104;-4.162;2022-08-07T13:30:47;1.70;;;1.70;;
8568;SDS011;4322;51.104;-4.162;2022-08-07T13:33:34;1.50;;;1.50;;
8568;SDS011;4322;51.104;-4.162;2022-08-07T13:36:33;1.50;;;1.50;;
8568;SDS011;4322;51.104;-4.162;2022-08-07T13:39:08;1.50;;;1.50;;
8568;SDS011;4322;51.104;-4.162;2022-08-07T13:42:04;1.40;;;1.40;;
8568;SDS011;4322;51.104;-4.162;2022-08-07T13:44:36;1.40;;;1.40;;
8568;SDS011;4322;51.104;-4.162;2022-08-07T13:47:20;1.70;;;1.70;;
8568;SDS011;4322;51.104;-4.162;2022-08-07T13:50:15;1.30;;;1.30;;
8568;SDS011;4322;51.104;-4.162;2022-08-07T13:53:06;1.30;;;1.30;;
8568;SDS011;4322;51.104;-4.162;2022-08-07T13:55:47;1.40;;;1.40;;
8568;SDS011;4322;51.104;-4.162;2022-08-07T13:58:22;1.60;;;1.60;;
8568;SDS011;4322;51.104;-4.162;2022-08-07T14:01:22;1.60;;;1.60;;
8568;SDS011;4322;51.104;-4.162;2022-08-07T14:04:00;1.50;;;1.50;;
8568;SDS011;4322;51.104;-4.162;2022-08-07T14:06:36;1.40;;;1.40;;
8568;SDS011;4322;51.104;-4.162;2022-08-07T14:09:07;1.30;;;1.30;;
8568;SDS011;4322;51.104;-4.162;2022-08-07T14:12:02;1.60;;;1.60;;
8568;SDS011;4322;51.104;-4.162;2022-08-07T14:14:40;1.30;;;1.30;;
8568;SDS011;4322;51.104;-4.162;2022-08-07T14:17:10;1.53;;;1.53;;
8568;SDS011;4322;51.104;-4.162;2022-08-07T14:20:03;1.50;;;1.50;;
8568;SDS011;4322;51.104;-4.162;2022-08-07T14:23:02;1.50;;;1.50;;
8568;SDS011;4322;51.104;-4.162;2022-08-07T14:25:35;1.50;;;1.50;;
8568;SDS011;4322;51.104;-4.162;2022-08-07T14:28:13;1.40;;;1.40;;
8568;SDS011;4322;51.104;-4.162;2022-08-07T14:30:45;1.40;;;1.40;;
8568;SDS011;4322;51.104;-4.162;2022-08-07T14:33:17;1.40;;;1.40;;
8568;SDS011;4322;51.104;-4.162;2022-08-07T14:35:52;1.50;;;1.50;;
8568;SDS011;4322;51.104;-4.162;2022-08-07T14:38:23;1.30;;;1.30;;
8568;SDS011;4322;51.104;-4.162;2022-08-07T14:40:59;1.40;;;1.40;;
8568;SDS011;4322;51.104;-4.162;2022-08-07T14:43:29;1.50;;;1.50;;
8568;SDS011;4322;51.104;-4.162;2022-08-07T14:46:20;1.50;;;1.50;;
8568;SDS011;4322;51.104;-4.162;2022-08-07T14:48:56;1.43;;;1.43;;
8568;SDS011;4322;51.104;-4.162;2022-08-07T14:51:46;1.60;;;1.60;;
8568;SDS011;4322;51.104;-4.162;2022-08-07T14:54:38;1.67;;;1.67;;
8568;SDS011;4322;51.104;-4.162;2022-08-07T14:57:09;1.60;;;1.60;;
8568;SDS011;4322;51.104;-4.162;2022-08-07T14:59:45;1.50;;;1.50;;
8568;SDS011;4322;51.104;-4.162;2022-08-07T15:02:37;1.60;;;1.60;;
8568;SDS011;4322;51.104;-4.162;2022-08-07T15:05:07;1.60;;;1.60;;
8568;SDS011;4322;51.104;-4.162;2022-08-07T15:07:48;1.60;;;1.60;;
8568;SDS011;4322;51.104;-4.162;2022-08-07T15:10:21;1.30;;;1.30;;
8568;SDS011;4322;51.104;-4.162;2022-08-07T15:12:52;1.60;;;1.60;;
8568;SDS011;4322;51.104;-4.162;2022-08-07T15:15:28;1.57;;;1.57;;
8568;SDS011;4322;51.104;-4.162;2022-08-07T15:18:06;1.50;;;1.50;;
8568;SDS011;4322;51.104;-4.162;2022-08-07T15:20:58;1.50;;;1.50;;
8568;SDS011;4322;51.104;-4.162;2022-08-07T15:23:49;1.57;;;1.57;;
8568;SDS011;4322;51.104;-4.162;2022-08-07T15:26:43;1.53;;;1.53;;
8568;SDS011;4322;51.104;-4.162;2022-08-07T15:29:16;1.47;;;1.47;;
8568;SDS011;4322;51.104;-4.162;2022-08-07T15:32:07;1.50;;;1.50;;
8568;SDS011;4322;51.104;-4.162;2022-08-07T15:34:39;1.50;;;1.50;;
8568;SDS011;4322;51.104;-4.162;2022-08-07T15:37:22;1.53;;;1.53;;
8568;SDS011;4322;51.104;-4.162;2022-08-07T15:39:54;1.50;;;1.50;;
8568;SDS011;4322;51.104;-4.162;2022-08-07T15:42:45;1.60;;;1.60;;
8568;SDS011;4322;51.104;-4.162;2022-08-07T15:45:24;1.60;;;1.60;;
8568;SDS011;4322;51.104;-4.162;2022-08-07T15:48:19;1.47;;;1.47;;
8568;SDS011;4322;51.104;-4.162;2022-08-07T15:50:55;1.60;;;1.60;;
8568;SDS011;4322;51.104;-4.162;2022-08-07T15:53:48;1.30;;;1.30;;
8568;SDS011;4322;51.104;-4.162;2022-08-07T15:56:20;1.30;;;1.30;;
8568;SDS011;4322;51.104;-4.162;2022-08-07T15:59:00;1.40;;;1.40;;
8568;SDS011;4322;51.104;-4.162;2022-08-07T16:01:43;1.60;;;1.60;;
8568;SDS011;4322;51.104;-4.162;2022-08-07T16:04:28;1.40;;;1.40;;
8568;SDS011;4322;51.104;-4.162;2022-08-07T16:07:00;1.30;;;1.30;;
8568;SDS011;4322;51.104;-4.162;2022-08-07T16:09:52;1.50;;;1.50;;
8568;SDS011;4322;51.104;-4.162;2022-08-07T16:12:29;1.70;;;1.70;;
8568;SDS011;4322;51.104;-4.162;2022-08-07T16:15:30;1.50;;;1.50;;
8568;SDS011;4322;51.104;-4.162;2022-08-07T16:18:26;1.50;;;1.50;;
8568;SDS011;4322;51.104;-4.162;2022-08-07T16:21:19;1.30;;;1.30;;
8568;SDS011;4322;51.104;-4.162;2022-08-07T16:24:22;1.60;;;1.60;;
8568;SDS011;4322;51.104;-4.162;2022-08-07T16:27:04;1.67;;;1.67;;
8568;SDS011;4322;51.104;-4.162;2022-08-07T16:32:56;1.47;;;1.47;;
8568;SDS011;4322;51.104;-4.162;2022-08-07T16:36:02;1.50;;;1.50;;